createdAt,value
2018-09-15T00:00:42.837Z,7.37
2018-09-15T00:03:11.637Z,6.63
2018-09-15T00:05:40.433Z,6.93
2018-09-15T00:08:09.267Z,5.97
2018-09-15T00:10:38.076Z,6.97
2018-09-15T00:13:06.895Z,6.50
2018-09-15T00:15:35.732Z,6.67
2018-09-15T00:18:06.926Z,7.47
2018-09-15T00:20:35.892Z,7.40
2018-09-15T00:23:05.068Z,7.50
2018-09-15T00:25:33.817Z,7.63
2018-09-15T00:28:02.621Z,7.57
2018-09-15T00:30:31.433Z,7.10
2018-09-15T00:33:00.238Z,8.20
2018-09-15T00:35:29.042Z,7.10
2018-09-15T00:37:57.842Z,7.23
2018-09-15T00:40:26.749Z,7.50
2018-09-15T00:42:55.577Z,7.93
2018-09-15T00:45:24.922Z,8.10
2018-09-15T00:47:53.734Z,7.20
2018-09-15T00:50:22.521Z,8.00
2018-09-15T00:52:51.713Z,7.87
2018-09-15T00:55:20.500Z,7.57
2018-09-15T00:57:49.336Z,7.37
2018-09-15T01:00:19.093Z,6.77
2018-09-15T01:02:47.938Z,8.03
2018-09-15T01:08:00.202Z,6.80
2018-09-15T01:10:28.989Z,7.97
2018-09-15T01:12:57.824Z,7.47
2018-09-15T01:15:26.646Z,7.60
2018-09-15T01:17:55.475Z,8.23
2018-09-15T01:20:24.270Z,8.23
2018-09-15T01:22:53.059Z,7.63
2018-09-15T01:25:21.913Z,7.87
2018-09-15T01:27:50.952Z,7.90
2018-09-15T01:30:20.205Z,8.03
2018-09-15T01:32:48.998Z,8.10
2018-09-15T01:35:17.869Z,7.50
2018-09-15T01:37:46.694Z,7.93
2018-09-15T01:40:15.564Z,7.27
2018-09-15T01:42:44.365Z,8.23
2018-09-15T01:45:13.187Z,7.37
2018-09-15T01:47:41.989Z,7.03
2018-09-15T01:50:10.809Z,7.47
2018-09-15T01:52:39.933Z,7.20
2018-09-15T01:55:09.339Z,8.00
2018-09-15T01:57:38.284Z,7.17
2018-09-15T02:04:59.609Z,7.27
2018-09-15T02:07:28.427Z,7.10
2018-09-15T02:09:57.257Z,7.27
2018-09-15T02:12:26.358Z,7.30
2018-09-15T02:15:02.055Z,7.00
2018-09-15T02:17:30.873Z,7.40
2018-09-15T02:19:59.737Z,6.93
2018-09-15T02:22:28.572Z,6.83
2018-09-15T02:24:57.383Z,6.67
2018-09-15T02:27:26.182Z,6.83
2018-09-15T02:29:54.990Z,7.00
2018-09-15T02:32:24.242Z,6.73
2018-09-15T02:34:53.030Z,6.63
2018-09-15T02:37:21.898Z,7.17
2018-09-15T02:39:50.709Z,7.43
2018-09-15T02:42:19.548Z,7.00
2018-09-15T02:44:48.353Z,7.57
2018-09-15T02:47:20.057Z,7.30
2018-09-15T02:49:48.839Z,7.13
2018-09-15T02:52:17.637Z,6.90
2018-09-15T02:54:46.792Z,7.13
2018-09-15T02:57:15.914Z,7.27
2018-09-15T02:59:44.716Z,7.47
2018-09-15T03:02:13.523Z,7.70
2018-09-15T03:04:42.305Z,7.27
2018-09-15T03:07:11.137Z,7.80
2018-09-15T03:09:39.964Z,7.40
2018-09-15T03:12:08.769Z,7.43
2018-09-15T03:14:37.563Z,7.07
2018-09-15T03:17:06.950Z,7.47
2018-09-15T03:19:35.765Z,7.07
2018-09-15T03:22:04.577Z,7.50
2018-09-15T03:24:33.504Z,7.00
2018-09-15T03:27:02.302Z,6.90
2018-09-15T03:29:31.119Z,6.80
2018-09-15T03:32:00.090Z,6.63
2018-09-15T03:34:28.895Z,7.47
2018-09-15T03:36:57.705Z,8.00
2018-09-15T03:39:26.948Z,6.57
2018-09-15T03:41:55.912Z,7.43
2018-09-15T03:44:24.642Z,7.37
2018-09-15T03:46:53.536Z,7.57
2018-09-15T03:49:22.345Z,7.63
2018-09-15T03:51:51.148Z,8.45
2018-09-15T03:54:21.240Z,8.07
2018-09-15T03:56:50.836Z,8.07
2018-09-15T03:59:19.991Z,7.70
2018-09-15T04:01:48.941Z,6.87
2018-09-15T04:04:17.760Z,8.50
2018-09-15T04:06:46.558Z,8.47
2018-09-15T04:09:15.366Z,8.77
2018-09-15T04:11:44.157Z,8.40
2018-09-15T04:14:12.969Z,8.20
2018-09-15T04:16:41.811Z,7.55
2018-09-15T04:19:10.604Z,8.67
2018-09-15T04:21:39.417Z,8.43
2018-09-15T04:24:08.643Z,9.00
2018-09-15T04:26:37.547Z,9.17
2018-09-15T04:29:06.470Z,9.47
2018-09-15T04:31:35.316Z,10.33
2018-09-15T04:34:04.144Z,9.73
2018-09-15T04:36:32.973Z,11.53
2018-09-15T04:39:01.824Z,13.00
2018-09-15T04:41:30.706Z,13.67
2018-09-15T04:43:59.478Z,15.03
2018-09-15T04:46:28.655Z,14.03
2018-09-15T04:48:57.457Z,14.37
2018-09-15T04:51:26.249Z,13.07
2018-09-15T04:53:55.095Z,12.50
2018-09-15T04:56:23.981Z,13.93
2018-09-15T04:58:52.886Z,13.60
2018-09-15T05:01:21.967Z,14.57
2018-09-15T05:03:50.774Z,14.57
2018-09-15T05:06:27.019Z,13.37
2018-09-15T05:08:55.754Z,13.37
2018-09-15T05:11:24.578Z,13.67
2018-09-15T05:13:53.386Z,12.97
2018-09-15T05:16:22.241Z,12.83
2018-09-15T05:18:51.049Z,12.90
2018-09-15T05:21:19.887Z,13.77
2018-09-15T05:23:48.686Z,12.87
2018-09-15T05:26:17.502Z,12.07
2018-09-15T05:28:46.769Z,12.23
2018-09-15T05:31:15.573Z,11.70
2018-09-15T05:33:44.446Z,11.37
2018-09-15T05:36:13.442Z,11.17
2018-09-15T05:38:42.298Z,10.63
2018-09-15T05:41:11.222Z,10.53
2018-09-15T05:43:40.200Z,10.10
2018-09-15T05:46:09.030Z,10.60
2018-09-15T05:48:37.840Z,9.70
2018-09-15T05:51:06.856Z,9.88
2018-09-15T05:53:35.673Z,10.13
2018-09-15T05:56:04.553Z,10.50
2018-09-15T05:58:33.329Z,10.07
2018-09-15T06:01:02.182Z,10.80
2018-09-15T06:03:31.253Z,9.50
2018-09-15T06:06:00.115Z,9.53
2018-09-15T06:08:28.964Z,9.10
2018-09-15T06:10:57.803Z,9.10
2018-09-15T06:13:26.979Z,9.13
2018-09-15T06:15:55.851Z,9.50
2018-09-15T06:18:25.003Z,9.37
2018-09-15T06:20:53.848Z,8.50
2018-09-15T06:23:22.734Z,9.13
2018-09-15T06:25:51.574Z,8.97
2018-09-15T06:28:20.377Z,9.73
2018-09-15T06:30:49.165Z,9.77
2018-09-15T06:33:18.007Z,10.30
2018-09-15T06:35:47.227Z,8.57
2018-09-15T06:38:16.124Z,9.57
2018-09-15T06:40:44.942Z,9.50
2018-09-15T06:43:13.760Z,9.33
2018-09-15T06:45:42.687Z,11.70
2018-09-15T06:48:11.423Z,11.00
2018-09-15T06:50:40.234Z,12.00
2018-09-15T06:53:09.275Z,10.60
2018-09-15T06:55:38.092Z,10.30
2018-09-15T06:58:07.262Z,11.43
2018-09-15T07:00:36.083Z,12.00
2018-09-15T07:03:04.954Z,12.50
2018-09-15T07:05:34.452Z,11.93
2018-09-15T07:08:03.257Z,11.37
2018-09-15T07:10:32.213Z,12.57
2018-09-15T07:13:01.161Z,11.37
2018-09-15T07:15:30.013Z,13.43
2018-09-15T07:18:05.348Z,11.80
2018-09-15T07:20:34.235Z,11.57
2018-09-15T07:23:03.093Z,12.20
2018-09-15T07:25:31.960Z,11.97
2018-09-15T07:28:00.780Z,11.47
2018-09-15T07:30:29.602Z,10.60
2018-09-15T07:32:58.405Z,11.30
2018-09-15T07:35:27.206Z,10.87
2018-09-15T07:37:56.001Z,11.10
2018-09-15T07:40:24.976Z,9.30
2018-09-15T07:42:53.786Z,8.83
2018-09-15T07:45:22.641Z,8.30
2018-09-15T07:47:52.457Z,7.43
2018-09-15T07:50:21.261Z,6.62
2018-09-15T07:52:50.103Z,7.57
2018-09-15T07:55:18.927Z,6.30
2018-09-15T07:57:47.784Z,6.67
2018-09-15T08:00:16.590Z,7.55
2018-09-15T08:02:45.560Z,7.13
2018-09-15T08:05:14.578Z,7.57
2018-09-15T08:07:43.942Z,6.63
2018-09-15T08:10:12.899Z,6.70
2018-09-15T08:12:41.787Z,6.27
2018-09-15T08:15:10.676Z,6.17
2018-09-15T08:17:39.705Z,5.67
2018-09-15T08:20:08.719Z,5.17
2018-09-15T08:22:37.559Z,4.43
2018-09-15T08:25:08.987Z,4.58
2018-09-15T08:27:37.807Z,4.37
2018-09-15T08:30:06.723Z,4.50
2018-09-15T08:32:35.545Z,4.80
2018-09-15T08:35:04.514Z,4.47
2018-09-15T08:37:33.398Z,4.30
2018-09-15T08:40:02.204Z,3.93
2018-09-15T08:42:31.044Z,4.20
2018-09-15T08:44:59.868Z,4.23
2018-09-15T08:47:29.221Z,3.67
2018-09-15T08:49:58.066Z,4.27
2018-09-15T08:52:27.139Z,3.30
2018-09-15T08:54:56.241Z,3.67
2018-09-15T08:57:25.095Z,3.90
2018-09-15T08:59:54.043Z,3.60
2018-09-15T09:02:22.863Z,3.90
2018-09-15T09:04:51.682Z,3.77
2018-09-15T09:07:20.546Z,3.37
2018-09-15T09:09:50.129Z,3.53
2018-09-15T09:12:18.946Z,3.40
2018-09-15T09:14:47.853Z,4.10
2018-09-15T09:17:16.931Z,3.63
2018-09-15T09:19:45.809Z,4.27
2018-09-15T09:22:14.622Z,3.70
2018-09-15T09:24:43.425Z,3.60
2018-09-15T09:27:12.246Z,4.00
2018-09-15T09:29:41.069Z,3.73
2018-09-15T09:32:10.214Z,3.83
2018-09-15T09:34:39.014Z,3.30
2018-09-15T09:37:07.813Z,3.60
2018-09-15T09:39:36.675Z,4.03
2018-09-15T09:42:05.482Z,3.03
2018-09-15T09:44:34.285Z,3.30
2018-09-15T09:47:03.115Z,3.00
2018-09-15T09:49:31.894Z,2.90
2018-09-15T09:52:00.691Z,2.95
2018-09-15T09:54:29.967Z,2.97
2018-09-15T09:56:58.771Z,2.33
2018-09-15T09:59:27.551Z,3.10
2018-09-15T10:02:01.185Z,3.03
2018-09-15T10:04:30.655Z,4.17
2018-09-15T10:06:59.503Z,2.40
2018-09-15T10:09:28.324Z,3.13
2018-09-15T10:11:57.558Z,2.33
2018-09-15T10:14:26.375Z,2.27
2018-09-15T10:16:55.631Z,2.33
2018-09-15T10:19:24.466Z,1.77
2018-09-15T10:21:53.279Z,2.23
2018-09-15T10:24:22.123Z,2.80
2018-09-15T10:26:50.955Z,2.17
2018-09-15T10:29:19.745Z,2.13
2018-09-15T10:31:48.596Z,2.05
2018-09-15T10:34:17.510Z,2.27
2018-09-15T10:36:46.310Z,2.13
2018-09-15T10:39:15.537Z,2.00
2018-09-15T10:41:44.333Z,2.00
2018-09-15T10:44:13.159Z,1.80
2018-09-15T10:46:42.056Z,1.97
2018-09-15T10:49:10.843Z,2.30
2018-09-15T10:51:39.669Z,1.93
2018-09-15T10:54:08.547Z,1.97
2018-09-15T10:56:37.331Z,1.63
2018-09-15T10:59:06.221Z,1.70
2018-09-15T11:01:35.245Z,1.53
2018-09-15T11:04:04.038Z,1.60
2018-09-15T11:06:32.943Z,1.67
2018-09-15T11:09:01.755Z,1.60
2018-09-15T11:11:30.559Z,1.53
2018-09-15T11:13:59.659Z,1.90
2018-09-15T11:16:28.470Z,1.73
2018-09-15T11:18:57.257Z,1.33
2018-09-15T11:21:26.053Z,1.40
2018-09-15T11:23:55.080Z,1.50
2018-09-15T11:26:26.868Z,1.37
2018-09-15T11:28:55.765Z,1.83
2018-09-15T11:31:24.543Z,2.07
2018-09-15T11:33:53.364Z,1.33
2018-09-15T11:36:22.162Z,2.10
2018-09-15T11:38:50.975Z,1.73
2018-09-15T11:41:19.866Z,1.50
2018-09-15T11:43:48.595Z,2.10
2018-09-15T11:46:17.514Z,1.43
2018-09-15T11:48:46.338Z,1.37
2018-09-15T11:51:15.126Z,1.77
2018-09-15T11:53:43.948Z,1.47
2018-09-15T11:56:12.775Z,1.47
2018-09-15T11:58:41.581Z,1.13
2018-09-15T12:01:10.443Z,1.60
2018-09-15T12:03:39.235Z,1.60
2018-09-15T12:06:08.037Z,1.77
2018-09-15T12:08:37.266Z,1.50
2018-09-15T12:11:06.253Z,1.60
2018-09-15T12:13:35.058Z,1.57
2018-09-15T12:16:04.357Z,1.40
2018-09-15T12:18:33.152Z,1.80
2018-09-15T12:21:01.996Z,2.07
2018-09-15T12:23:30.985Z,1.60
2018-09-15T12:25:59.838Z,1.27
2018-09-15T12:28:28.710Z,1.33
2018-09-15T12:30:57.791Z,1.43
2018-09-15T12:33:26.622Z,1.50
2018-09-15T12:35:55.469Z,1.80
2018-09-15T12:38:24.345Z,1.30
2018-09-15T12:40:53.215Z,1.40
2018-09-15T12:43:22.018Z,1.27
2018-09-15T12:45:50.849Z,1.00
2018-09-15T12:48:19.640Z,1.40
2018-09-15T12:50:48.471Z,1.40
2018-09-15T12:53:17.671Z,1.70
2018-09-15T12:55:46.581Z,1.27
2018-09-15T12:58:15.499Z,0.97
2018-09-15T13:00:44.388Z,0.80
2018-09-15T13:03:13.240Z,1.27
2018-09-15T13:05:42.110Z,1.20
2018-09-15T13:08:11.012Z,1.20
2018-09-15T13:10:39.861Z,1.10
2018-09-15T13:13:08.723Z,1.20
2018-09-15T13:15:37.836Z,1.30
2018-09-15T13:18:06.827Z,1.33
2018-09-15T13:20:35.641Z,1.27
2018-09-15T13:23:04.445Z,1.33
2018-09-15T13:25:33.243Z,1.17
2018-09-15T13:28:02.043Z,1.60
2018-09-15T13:30:30.869Z,1.50
2018-09-15T13:32:59.839Z,1.50
2018-09-15T13:35:28.629Z,1.10
2018-09-15T13:37:57.983Z,1.20
2018-09-15T13:40:26.769Z,1.30
2018-09-15T13:42:55.587Z,0.93
2018-09-15T13:45:24.434Z,1.17
2018-09-15T13:47:53.325Z,1.00
2018-09-15T13:50:22.155Z,1.50
2018-09-15T13:52:51.010Z,1.33
2018-09-15T13:55:19.821Z,1.20
2018-09-15T13:57:48.662Z,1.13
2018-09-15T14:00:18.552Z,1.30
2018-09-15T14:02:47.365Z,1.47
2018-09-15T14:05:16.191Z,1.03
2018-09-15T14:07:44.994Z,1.20
2018-09-15T14:10:19.012Z,1.57
2018-09-15T14:12:42.709Z,1.43
2018-09-15T14:15:11.538Z,1.70
2018-09-15T14:17:40.391Z,1.63
2018-09-15T14:20:09.679Z,1.70
2018-09-15T14:22:38.750Z,1.60
2018-09-15T14:25:08.716Z,1.47
2018-09-15T14:27:37.553Z,1.50
2018-09-15T14:30:07.386Z,1.10
2018-09-15T14:32:36.315Z,1.23
2018-09-15T14:35:05.200Z,2.03
2018-09-15T14:37:34.013Z,1.03
2018-09-15T14:40:02.817Z,1.40
2018-09-15T14:42:31.666Z,1.27
2018-09-15T14:45:00.630Z,1.27
2018-09-15T14:47:29.473Z,1.30
2018-09-15T14:49:58.363Z,1.07
2018-09-15T14:52:27.514Z,1.47
2018-09-15T14:54:56.321Z,1.50
2018-09-15T14:57:25.209Z,2.50
2018-09-15T14:59:54.022Z,1.73
2018-09-15T15:02:22.835Z,1.47
2018-09-15T15:04:51.637Z,2.80
2018-09-15T15:07:20.712Z,1.60
2018-09-15T15:09:49.593Z,1.40
2018-09-15T15:12:18.404Z,1.17
2018-09-15T15:14:47.245Z,1.40
2018-09-15T15:17:16.059Z,1.47
2018-09-15T15:19:44.895Z,1.87
2018-09-15T15:22:14.031Z,2.07
2018-09-15T15:24:42.842Z,1.83
2018-09-15T15:27:11.666Z,1.70
2018-09-15T15:29:40.710Z,1.50
2018-09-15T15:32:09.527Z,1.50
2018-09-15T15:34:38.366Z,2.10
2018-09-15T15:37:07.296Z,1.67
2018-09-15T15:39:36.154Z,2.03
2018-09-15T15:42:05.018Z,1.40
2018-09-15T15:44:33.845Z,1.90
2018-09-15T15:47:02.723Z,1.67
2018-09-15T15:49:31.629Z,1.60
2018-09-15T15:52:00.626Z,1.87
2018-09-15T15:54:29.476Z,1.80
2018-09-15T15:56:58.361Z,1.83
2018-09-15T15:59:27.115Z,1.60
2018-09-15T16:01:55.919Z,1.80
2018-09-15T16:04:24.777Z,1.33
2018-09-15T16:06:53.559Z,1.63
2018-09-15T16:09:22.358Z,1.77
2018-09-15T16:11:51.222Z,1.40
2018-09-15T16:14:20.339Z,1.63
2018-09-15T16:16:49.163Z,2.07
2018-09-15T16:19:18.017Z,2.10
2018-09-15T16:21:46.968Z,2.87
2018-09-15T16:24:16.203Z,2.27
2018-09-15T16:26:44.998Z,2.40
2018-09-15T16:29:13.838Z,1.97
2018-09-15T16:31:42.653Z,2.03
2018-09-15T16:34:11.464Z,2.33
2018-09-15T16:36:40.405Z,1.90
2018-09-15T16:39:10.986Z,1.90
2018-09-15T16:41:39.950Z,1.60
2018-09-15T16:44:08.872Z,2.17
2018-09-15T16:46:37.745Z,1.70
2018-09-15T16:49:07.398Z,2.33
2018-09-15T16:51:36.367Z,1.43
2018-09-15T16:54:06.047Z,1.60
2018-09-15T16:56:35.513Z,2.00
2018-09-15T16:59:04.681Z,1.50
2018-09-15T17:01:33.489Z,1.47
2018-09-15T17:04:02.341Z,1.83
2018-09-15T17:06:31.167Z,1.90
2018-09-15T17:08:59.991Z,1.57
2018-09-15T17:11:28.794Z,1.50
2018-09-15T17:13:57.657Z,1.63
2018-09-15T17:16:26.581Z,2.13
2018-09-15T17:18:55.392Z,1.57
2018-09-15T17:21:24.548Z,1.97
2018-09-15T17:23:53.356Z,1.73
2018-09-15T17:26:22.659Z,1.70
2018-09-15T17:28:51.456Z,1.43
2018-09-15T17:31:20.366Z,2.07
2018-09-15T17:33:49.068Z,1.77
2018-09-15T17:36:17.891Z,1.70
2018-09-15T17:38:46.689Z,1.57
2018-09-15T17:41:15.558Z,2.03
2018-09-15T17:43:44.714Z,3.20
2018-09-15T17:46:13.537Z,2.00
2018-09-15T17:48:42.431Z,2.67
2018-09-15T17:51:11.256Z,1.77
2018-09-15T17:53:40.037Z,2.20
2018-09-15T17:56:08.904Z,1.70
2018-09-15T17:58:37.746Z,1.87
2018-09-15T18:01:06.597Z,1.70
2018-09-15T18:03:35.474Z,1.90
2018-09-15T18:06:04.933Z,2.43
2018-09-15T18:08:33.773Z,1.90
2018-09-15T18:11:02.569Z,1.67
2018-09-15T18:13:31.443Z,2.00
2018-09-15T18:16:00.290Z,2.47
2018-09-15T18:18:29.172Z,1.93
2018-09-15T18:20:57.978Z,2.40
2018-09-15T18:23:26.777Z,2.83
2018-09-15T18:25:55.611Z,2.67
2018-09-15T18:28:25.158Z,2.40
2018-09-15T18:30:53.969Z,2.73
2018-09-15T18:33:22.775Z,2.43
2018-09-15T18:35:51.675Z,1.90
2018-09-15T18:38:20.499Z,2.13
2018-09-15T18:40:49.338Z,2.40
2018-09-15T18:43:24.552Z,1.80
2018-09-15T18:45:53.375Z,2.57
2018-09-15T18:48:22.208Z,2.23
2018-09-15T18:50:51.599Z,1.87
2018-09-15T18:53:20.406Z,2.60
2018-09-15T18:55:49.230Z,2.40
2018-09-15T18:58:18.128Z,1.67
2018-09-15T19:00:47.003Z,1.57
2018-09-15T19:03:16.755Z,1.70
2018-09-15T19:05:46.627Z,1.73
2018-09-15T19:08:15.458Z,1.60
2018-09-15T19:10:44.347Z,1.40
2018-09-15T19:13:14.142Z,1.80
2018-09-15T19:15:42.959Z,1.40
2018-09-15T19:18:11.767Z,1.60
2018-09-15T19:20:40.603Z,1.50
2018-09-15T19:23:09.417Z,1.60
2018-09-15T19:25:38.348Z,1.80
2018-09-15T19:28:07.173Z,1.50
2018-09-15T19:30:36.461Z,1.40
2018-09-15T19:33:05.296Z,1.93
2018-09-15T19:35:34.450Z,1.60
2018-09-15T19:38:03.275Z,2.07
2018-09-15T19:40:32.162Z,1.67
2018-09-15T19:43:01.035Z,1.60
2018-09-15T19:45:29.855Z,2.30
2018-09-15T19:47:58.633Z,2.17
2018-09-15T19:50:27.434Z,1.93
2018-09-15T19:52:56.253Z,1.83
2018-09-15T19:55:25.179Z,1.73
2018-09-15T19:57:54.281Z,1.80
2018-09-15T20:00:23.604Z,2.00
2018-09-15T20:02:52.431Z,2.30
2018-09-15T20:05:21.357Z,1.90
2018-09-15T20:07:50.131Z,2.67
2018-09-15T20:10:18.973Z,1.63
2018-09-15T20:12:47.943Z,2.13
2018-09-15T20:15:23.675Z,2.00
2018-09-15T20:17:51.732Z,2.10
2018-09-15T20:20:19.726Z,3.17
2018-09-15T20:22:49.094Z,1.83
2018-09-15T20:25:17.983Z,2.13
2018-09-15T20:27:46.915Z,2.20
2018-09-15T20:30:15.758Z,2.00
2018-09-15T20:32:44.998Z,1.73
2018-09-15T20:35:13.798Z,2.02
2018-09-15T20:37:42.631Z,1.80
2018-09-15T20:40:11.669Z,1.90
2018-09-15T20:42:40.959Z,1.70
2018-09-15T20:45:09.862Z,1.60
2018-09-15T20:47:38.846Z,2.07
2018-09-15T20:50:08.846Z,2.00
2018-09-15T20:52:37.714Z,2.00
2018-09-15T20:55:08.678Z,2.17
2018-09-15T20:57:37.481Z,2.20
2018-09-15T21:00:10.145Z,1.77
2018-09-15T21:02:39.335Z,2.17
2018-09-15T21:05:08.942Z,2.27
2018-09-15T21:07:37.923Z,2.63
2018-09-15T21:10:08.674Z,2.80
2018-09-15T21:12:37.608Z,2.67
2018-09-15T21:15:08.487Z,2.62
2018-09-15T21:17:37.330Z,2.80
2018-09-15T21:20:06.289Z,2.53
2018-09-15T21:22:35.379Z,3.10
2018-09-15T21:25:04.203Z,2.27
2018-09-15T21:27:33.035Z,2.60
2018-09-15T21:30:01.842Z,3.57
2018-09-15T21:32:30.687Z,2.40
2018-09-15T21:35:00.046Z,3.23
2018-09-15T21:37:28.831Z,2.80
2018-09-15T21:39:57.674Z,2.67
2018-09-15T21:42:26.603Z,2.50
2018-09-15T21:44:55.728Z,2.50
2018-09-15T21:47:24.524Z,2.57
2018-09-15T21:49:53.540Z,2.67
2018-09-15T21:52:22.373Z,2.70
2018-09-15T21:54:51.209Z,2.77
2018-09-15T21:57:19.991Z,2.83
2018-09-15T21:59:48.843Z,2.63
2018-09-15T22:02:17.667Z,3.50
2018-09-15T22:04:46.450Z,2.70
2018-09-15T22:07:15.523Z,2.67
2018-09-15T22:09:44.327Z,2.60
2018-09-15T22:12:13.218Z,3.00
2018-09-15T22:14:42.034Z,3.13
2018-09-15T22:17:10.949Z,2.43
2018-09-15T22:19:39.785Z,2.37
2018-09-15T22:22:08.630Z,1.97
2018-09-15T22:24:37.451Z,2.47
2018-09-15T22:27:06.359Z,3.30
2018-09-15T22:29:35.306Z,2.30
2018-09-15T22:32:04.131Z,2.50
2018-09-15T22:34:32.933Z,4.13
2018-09-15T22:37:02.130Z,2.83
2018-09-15T22:39:30.909Z,2.77
2018-09-15T22:41:59.726Z,2.57
2018-09-15T22:44:28.586Z,3.27
2018-09-15T22:46:57.375Z,3.37
2018-09-15T22:49:26.180Z,2.80
2018-09-15T22:51:55.174Z,3.63
2018-09-15T22:54:23.992Z,3.97
2018-09-15T22:56:52.809Z,3.50
2018-09-15T22:59:21.630Z,3.63
2018-09-15T23:01:50.435Z,3.80
2018-09-15T23:04:19.255Z,4.30
2018-09-15T23:06:48.099Z,4.93
2018-09-15T23:09:16.899Z,4.60
2018-09-15T23:11:46.693Z,5.03
2018-09-15T23:14:15.887Z,4.63
2018-09-15T23:16:44.678Z,5.90
2018-09-15T23:19:13.588Z,5.00
2018-09-15T23:21:42.323Z,4.83
2018-09-15T23:24:11.142Z,4.80
2018-09-15T23:26:39.939Z,4.53
2018-09-15T23:29:08.752Z,4.93
2018-09-15T23:31:37.634Z,4.43
2018-09-15T23:34:06.526Z,5.53
2018-09-15T23:36:35.489Z,4.63
2018-09-15T23:39:07.422Z,4.80
2018-09-15T23:41:36.237Z,4.57
2018-09-15T23:44:05.030Z,4.50
2018-09-15T23:46:33.817Z,4.57
2018-09-15T23:49:02.617Z,5.40
2018-09-15T23:51:31.432Z,4.93
2018-09-15T23:54:00.226Z,4.90
2018-09-15T23:56:29.391Z,4.70
2018-09-15T23:58:58.231Z,5.03
